createdAt,value
2022-12-03T00:00:32.008Z,1.02
2022-12-03T00:02:58.897Z,0.70
2022-12-03T00:05:25.761Z,0.90
2022-12-03T00:07:52.771Z,1.05
2022-12-03T00:10:19.690Z,0.65
2022-12-03T00:12:46.783Z,0.80
2022-12-03T00:15:13.616Z,0.65
2022-12-03T00:17:40.450Z,0.50
2022-12-03T00:20:08.534Z,0.70
2022-12-03T00:22:35.564Z,0.80
2022-12-03T00:25:02.379Z,0.90
2022-12-03T00:27:29.216Z,0.73
2022-12-03T00:29:56.010Z,0.75
2022-12-03T00:32:22.837Z,0.50
2022-12-03T00:34:49.570Z,0.50
2022-12-03T00:37:16.476Z,1.08
2022-12-03T00:39:43.241Z,0.65
2022-12-03T00:42:10.032Z,0.90
2022-12-03T00:44:36.787Z,1.10
2022-12-03T00:47:04.010Z,1.38
2022-12-03T00:49:50.206Z,0.90
2022-12-03T00:52:35.487Z,0.60
2022-12-03T00:55:02.418Z,1.15
2022-12-03T00:57:29.175Z,1.00
2022-12-03T01:02:40.367Z,1.23
2022-12-03T01:05:07.609Z,0.98
2022-12-03T01:07:35.003Z,1.27
2022-12-03T01:10:03.566Z,1.40
2022-12-03T01:15:52.226Z,0.80
2022-12-03T01:18:19.028Z,1.10
2022-12-03T01:20:45.876Z,1.20
2022-12-03T01:23:13.147Z,1.00
2022-12-03T01:25:40.005Z,0.95
2022-12-03T01:28:06.819Z,1.23
2022-12-03T01:30:53.703Z,1.05
2022-12-03T01:33:20.608Z,0.90
2022-12-03T01:35:47.431Z,1.70
2022-12-03T01:38:14.237Z,1.35
2022-12-03T01:40:41.090Z,1.25
2022-12-03T01:43:07.911Z,1.00
2022-12-03T01:45:34.696Z,2.00
2022-12-03T01:48:01.703Z,1.20
2022-12-03T01:50:33.331Z,1.08
2022-12-03T01:53:03.166Z,1.23
2022-12-03T01:55:30.461Z,1.63
2022-12-03T01:58:00.841Z,1.33
2022-12-03T02:00:29.281Z,1.08
2022-12-03T02:03:21.790Z,1.40
2022-12-03T02:05:48.659Z,1.35
2022-12-03T02:08:33.867Z,1.50
2022-12-03T02:11:06.056Z,1.20
2022-12-03T02:13:33.678Z,1.92
2022-12-03T02:16:00.486Z,2.40
2022-12-03T02:18:27.395Z,1.75
2022-12-03T02:20:56.934Z,1.33
2022-12-03T02:23:40.429Z,1.95
2022-12-03T02:26:26.421Z,1.88
2022-12-03T02:28:53.543Z,1.45
2022-12-03T02:31:39.332Z,1.35
2022-12-03T02:34:07.841Z,1.25
2022-12-03T02:36:36.322Z,1.00
2022-12-03T02:39:04.563Z,0.95
2022-12-03T02:41:49.928Z,1.20
2022-12-03T02:44:16.819Z,1.48
2022-12-03T02:46:43.700Z,1.40
2022-12-03T02:49:10.570Z,1.73
2022-12-03T02:51:37.949Z,1.73
2022-12-03T02:54:04.844Z,0.90
2022-12-03T02:56:33.369Z,1.33
2022-12-03T02:59:03.267Z,1.50
2022-12-03T03:01:30.361Z,1.58
2022-12-03T03:03:58.489Z,1.38
2022-12-03T03:06:26.007Z,1.33
2022-12-03T03:08:53.112Z,1.23
2022-12-03T03:11:19.989Z,1.25
2022-12-03T03:13:47.088Z,1.10
2022-12-03T03:16:14.059Z,1.10
2022-12-03T03:18:41.298Z,1.67
2022-12-03T03:21:08.273Z,1.40
2022-12-03T03:23:35.063Z,1.30
2022-12-03T03:26:01.863Z,0.95
2022-12-03T03:28:30.487Z,0.80
2022-12-03T03:30:58.999Z,1.17
2022-12-03T03:33:25.847Z,0.98
2022-12-03T03:35:53.492Z,1.15
2022-12-03T03:38:22.695Z,1.02
2022-12-03T03:41:09.290Z,1.00
2022-12-03T03:43:38.450Z,1.02
2022-12-03T03:46:07.366Z,0.70
2022-12-03T03:48:35.498Z,0.90
2022-12-03T03:51:08.795Z,1.05
2022-12-03T03:53:42.940Z,0.47
2022-12-03T03:58:56.081Z,1.20
2022-12-03T04:01:23.829Z,1.27
2022-12-03T04:04:20.687Z,1.20
2022-12-03T04:07:06.838Z,0.60
2022-12-03T04:09:33.703Z,1.23
2022-12-03T04:12:18.671Z,1.15
2022-12-03T04:14:45.516Z,0.90
2022-12-03T04:17:12.397Z,0.98
2022-12-03T04:19:39.193Z,0.50
2022-12-03T04:22:25.170Z,0.90
2022-12-03T04:24:52.299Z,0.95
2022-12-03T04:27:37.499Z,1.05
2022-12-03T04:30:04.624Z,1.30
2022-12-03T04:32:49.800Z,0.80
2022-12-03T04:35:35.523Z,0.93
2022-12-03T04:38:02.661Z,1.20
2022-12-03T04:40:48.068Z,1.08
2022-12-03T04:43:14.892Z,1.20
2022-12-03T04:45:41.643Z,1.13
2022-12-03T04:48:08.515Z,1.23
2022-12-03T04:50:35.357Z,1.40
2022-12-03T04:53:02.151Z,1.23
2022-12-03T04:55:28.891Z,1.00
2022-12-03T04:57:55.704Z,1.05
2022-12-03T05:00:22.791Z,1.48
2022-12-03T05:05:52.471Z,1.15
2022-12-03T05:08:19.298Z,1.10
2022-12-03T05:13:30.481Z,1.10
2022-12-03T05:15:57.268Z,0.82
2022-12-03T05:18:24.118Z,1.17
2022-12-03T05:20:53.425Z,1.30
2022-12-03T05:23:20.986Z,1.27
2022-12-03T05:25:47.859Z,1.10
2022-12-03T05:28:14.764Z,1.10
2022-12-03T05:30:41.812Z,1.42
2022-12-03T05:33:27.226Z,1.55
2022-12-03T05:35:54.051Z,1.20
2022-12-03T05:38:20.780Z,1.08
2022-12-03T05:40:47.695Z,0.80
2022-12-03T05:43:14.523Z,1.27
2022-12-03T05:48:29.977Z,1.40
2022-12-03T05:50:56.770Z,1.20
2022-12-03T05:53:23.723Z,1.48
2022-12-03T05:55:50.603Z,0.95
2022-12-03T05:58:17.487Z,0.80
2022-12-03T06:00:44.304Z,1.50
2022-12-03T06:03:11.653Z,1.10
2022-12-03T06:05:38.613Z,1.35
2022-12-03T06:08:05.450Z,1.30
2022-12-03T06:10:32.617Z,1.17
2022-12-03T06:12:59.578Z,1.00
2022-12-03T06:15:26.387Z,1.40
2022-12-03T06:17:53.252Z,1.20
2022-12-03T06:20:21.526Z,0.95
2022-12-03T06:22:48.812Z,1.27
2022-12-03T06:25:16.597Z,1.10
2022-12-03T06:27:43.656Z,1.00
2022-12-03T06:30:12.909Z,1.17
2022-12-03T06:32:39.753Z,1.05
2022-12-03T06:35:06.787Z,0.70
2022-12-03T06:37:33.668Z,1.20
2022-12-03T06:40:00.414Z,1.10
2022-12-03T06:42:27.222Z,0.68
2022-12-03T06:44:54.316Z,0.77
2022-12-03T06:47:21.591Z,0.85
2022-12-03T06:49:48.319Z,0.88
2022-12-03T06:52:15.890Z,1.17
2022-12-03T06:54:43.159Z,0.70
2022-12-03T06:57:10.023Z,0.60
2022-12-03T06:59:37.684Z,0.73
2022-12-03T07:02:05.077Z,1.67
2022-12-03T07:04:32.023Z,0.80
2022-12-03T07:06:58.925Z,0.90
2022-12-03T07:09:44.390Z,1.20
2022-12-03T07:12:11.198Z,0.80
2022-12-03T07:14:38.214Z,0.70
2022-12-03T07:17:05.047Z,1.02
2022-12-03T07:19:33.126Z,0.80
2022-12-03T07:22:00.552Z,0.85
2022-12-03T07:24:27.692Z,0.93
2022-12-03T07:26:54.539Z,1.00
2022-12-03T07:29:40.005Z,0.70
2022-12-03T07:32:06.828Z,0.93
2022-12-03T07:34:33.760Z,0.60
2022-12-03T07:37:00.530Z,0.77
2022-12-03T07:39:27.285Z,1.02
2022-12-03T07:41:54.093Z,0.70
2022-12-03T07:44:20.880Z,0.73
2022-12-03T07:46:47.786Z,1.52
2022-12-03T07:49:14.688Z,0.65
2022-12-03T07:51:41.530Z,3.88
2022-12-03T07:54:08.800Z,0.73
2022-12-03T07:56:35.672Z,1.10
2022-12-03T07:59:21.000Z,1.10
2022-12-03T08:01:47.887Z,0.80
2022-12-03T08:04:15.056Z,1.75
2022-12-03T08:06:41.879Z,0.90
2022-12-03T08:09:10.956Z,0.82
2022-12-03T08:12:19.549Z,0.75
2022-12-03T08:14:46.363Z,1.20
2022-12-03T08:17:14.955Z,1.20
2022-12-03T08:19:46.694Z,1.20
2022-12-03T08:22:15.119Z,1.25
2022-12-03T08:24:43.446Z,0.90
2022-12-03T08:27:20.074Z,1.27
2022-12-03T08:29:47.219Z,0.77
2022-12-03T08:32:14.124Z,1.10
2022-12-03T08:35:02.313Z,1.45
2022-12-03T08:37:29.838Z,0.88
2022-12-03T08:39:56.686Z,0.85
2022-12-03T08:42:41.916Z,1.17
2022-12-03T08:45:35.327Z,1.52
2022-12-03T08:48:07.369Z,1.20
2022-12-03T08:50:40.220Z,1.07
2022-12-03T08:53:25.811Z,1.10
2022-12-03T08:55:55.003Z,2.03
2022-12-03T08:58:25.358Z,1.42
2022-12-03T09:01:13.641Z,1.30
2022-12-03T09:03:51.153Z,1.10
2022-12-03T09:06:18.183Z,1.70
2022-12-03T09:08:45.013Z,1.70
2022-12-03T09:11:49.464Z,1.48
2022-12-03T09:14:18.950Z,1.48
2022-12-03T09:16:46.096Z,1.05
2022-12-03T09:19:12.889Z,1.33
2022-12-03T09:21:39.740Z,1.10
2022-12-03T09:24:06.946Z,1.30
2022-12-03T09:26:33.751Z,1.63
2022-12-03T09:29:00.709Z,2.20
2022-12-03T09:31:27.562Z,1.98
2022-12-03T09:33:54.354Z,1.90
2022-12-03T09:36:21.168Z,2.22
2022-12-03T09:38:48.413Z,1.30
2022-12-03T09:41:15.869Z,1.90
2022-12-03T09:44:03.413Z,1.63
2022-12-03T09:46:30.488Z,1.60
2022-12-03T09:48:57.819Z,1.40
2022-12-03T09:51:32.103Z,1.58
2022-12-03T09:54:24.299Z,1.38
2022-12-03T09:56:52.150Z,1.63
2022-12-03T10:02:11.183Z,1.63
2022-12-03T10:04:38.209Z,2.63
2022-12-03T10:07:05.274Z,1.83
2022-12-03T10:09:50.989Z,1.98
2022-12-03T10:12:23.487Z,1.48
2022-12-03T10:14:50.889Z,1.52
2022-12-03T10:17:18.178Z,1.48
2022-12-03T10:19:45.246Z,1.23
2022-12-03T10:22:36.994Z,1.20
2022-12-03T10:25:09.362Z,1.45
2022-12-03T10:27:36.419Z,1.65
2022-12-03T10:30:13.983Z,1.67
2022-12-03T10:32:42.034Z,1.40
2022-12-03T10:35:21.626Z,1.35
2022-12-03T10:37:59.376Z,1.20
2022-12-03T10:40:34.467Z,1.50
2022-12-03T10:43:21.121Z,1.48
2022-12-03T10:49:11.742Z,1.73
2022-12-03T10:51:39.506Z,1.60
2022-12-03T10:54:17.309Z,1.50
2022-12-03T10:57:03.091Z,0.98
2022-12-03T11:02:23.785Z,1.70
2022-12-03T11:04:51.920Z,1.20
2022-12-03T11:07:20.922Z,1.52
2022-12-03T11:09:54.689Z,1.13
2022-12-03T11:12:28.052Z,1.27
2022-12-03T11:14:55.100Z,1.23
2022-12-03T11:17:47.459Z,1.42
2022-12-03T11:20:22.841Z,1.23
2022-12-03T11:22:55.101Z,1.20
2022-12-03T11:25:24.960Z,0.93
2022-12-03T11:28:29.288Z,0.93
2022-12-03T11:31:16.481Z,1.15
2022-12-03T11:33:44.641Z,1.92
2022-12-03T11:36:13.870Z,1.80
2022-12-03T11:38:53.583Z,1.13
2022-12-03T11:41:22.622Z,1.77
2022-12-03T11:44:29.006Z,2.15
2022-12-03T11:46:58.434Z,1.20
2022-12-03T11:49:46.957Z,1.30
2022-12-03T11:52:28.479Z,1.30
2022-12-03T11:55:33.688Z,1.20
2022-12-03T11:58:04.010Z,1.23
2022-12-03T12:00:31.040Z,0.88
2022-12-03T12:02:58.803Z,1.17
2022-12-03T12:05:33.818Z,1.25
2022-12-03T12:08:02.686Z,1.08
2022-12-03T12:10:38.550Z,1.67
2022-12-03T12:13:05.399Z,1.67
2022-12-03T12:15:44.543Z,2.17
2022-12-03T12:18:52.403Z,1.25
2022-12-03T12:21:50.176Z,1.67
2022-12-03T12:24:40.524Z,1.55
2022-12-03T12:27:10.661Z,1.17
2022-12-03T12:29:39.540Z,1.00
2022-12-03T12:32:09.116Z,1.25
2022-12-03T12:34:59.486Z,1.42
2022-12-03T12:37:32.583Z,1.17
2022-12-03T12:42:54.946Z,1.20
2022-12-03T12:45:24.449Z,0.85
2022-12-03T12:48:15.594Z,1.00
2022-12-03T12:50:46.151Z,1.08
2022-12-03T12:53:32.756Z,0.85
2022-12-03T12:56:08.232Z,1.30
2022-12-03T12:58:36.078Z,0.98
2022-12-03T13:01:12.384Z,0.88
2022-12-03T13:03:39.765Z,0.90
2022-12-03T13:06:06.851Z,0.70
2022-12-03T13:08:39.432Z,1.33
2022-12-03T13:11:24.802Z,1.05
2022-12-03T13:13:52.057Z,0.70
2022-12-03T13:16:20.413Z,1.05
2022-12-03T13:18:54.591Z,0.90
2022-12-03T13:21:40.431Z,0.77
2022-12-03T13:24:44.168Z,1.23
2022-12-03T13:30:14.004Z,0.85
2022-12-03T13:32:42.536Z,1.25
2022-12-03T13:35:31.621Z,0.77
2022-12-03T13:37:59.500Z,0.60
2022-12-03T13:40:36.433Z,0.73
2022-12-03T13:43:18.747Z,0.57
2022-12-03T13:46:07.362Z,0.60
2022-12-03T13:48:36.083Z,0.55
2022-12-03T13:51:20.140Z,0.98
2022-12-03T13:53:47.097Z,0.50
2022-12-03T13:56:33.764Z,0.55
2022-12-03T13:59:01.469Z,0.90
2022-12-03T14:01:28.514Z,0.90
2022-12-03T14:03:55.996Z,0.80
2022-12-03T14:06:22.928Z,0.88
2022-12-03T14:08:49.804Z,0.88
2022-12-03T14:11:34.848Z,0.95
2022-12-03T14:14:01.720Z,1.20
2022-12-03T14:16:28.641Z,1.60
2022-12-03T14:18:55.552Z,1.05
2022-12-03T14:21:22.278Z,0.80
2022-12-03T14:23:52.219Z,0.60
2022-12-03T14:26:37.679Z,0.77
2022-12-03T14:29:08.608Z,0.50
2022-12-03T14:31:35.904Z,0.77
2022-12-03T14:34:21.743Z,0.73
2022-12-03T14:36:48.612Z,0.93
2022-12-03T14:39:15.348Z,0.77
2022-12-03T14:42:00.939Z,0.65
2022-12-03T14:44:27.807Z,0.77
2022-12-03T14:46:57.520Z,0.80
2022-12-03T14:49:24.580Z,0.82
2022-12-03T14:51:51.465Z,0.70
2022-12-03T14:54:18.358Z,0.90
2022-12-03T14:56:45.263Z,1.10
2022-12-03T14:59:12.039Z,0.40
2022-12-03T15:01:39.338Z,0.70
2022-12-03T15:04:06.246Z,0.93
2022-12-03T15:06:33.132Z,1.00
2022-12-03T15:09:00.136Z,0.70
2022-12-03T15:11:46.658Z,0.70
2022-12-03T15:14:13.737Z,0.63
2022-12-03T15:16:40.637Z,0.60
2022-12-03T15:19:07.520Z,0.70
2022-12-03T15:21:35.112Z,1.00
2022-12-03T15:24:02.574Z,1.42
2022-12-03T15:26:30.137Z,0.90
2022-12-03T15:28:56.974Z,1.23
2022-12-03T15:31:23.922Z,0.90
2022-12-03T15:33:50.829Z,0.80
2022-12-03T15:36:17.791Z,0.95
2022-12-03T15:38:44.605Z,1.00
2022-12-03T15:41:29.847Z,0.85
2022-12-03T15:43:59.018Z,0.77
2022-12-03T15:46:27.995Z,0.93
2022-12-03T15:48:55.965Z,0.73
2022-12-03T15:51:23.741Z,1.20
2022-12-03T15:53:51.290Z,1.23
2022-12-03T15:56:18.137Z,1.00
2022-12-03T15:58:45.079Z,0.50
2022-12-03T16:01:31.262Z,1.00
2022-12-03T16:03:58.246Z,1.40
2022-12-03T16:06:25.271Z,0.90
2022-12-03T16:08:52.143Z,1.10
2022-12-03T16:11:18.901Z,1.10
2022-12-03T16:13:45.721Z,1.23
2022-12-03T16:16:12.738Z,1.20
2022-12-03T16:18:39.554Z,1.87
2022-12-03T16:21:06.520Z,1.30
2022-12-03T16:23:33.328Z,1.53
2022-12-03T16:26:00.199Z,1.03
2022-12-03T16:28:26.967Z,1.48
2022-12-03T16:30:53.875Z,1.30
2022-12-03T16:33:59.067Z,1.40
2022-12-03T16:36:25.839Z,1.97
2022-12-03T16:38:52.818Z,2.03
2022-12-03T16:41:19.859Z,1.77
2022-12-03T16:43:48.554Z,1.95
2022-12-03T16:46:15.451Z,2.10
2022-12-03T16:48:42.411Z,1.83
2022-12-03T16:51:10.167Z,2.20
2022-12-03T16:53:37.159Z,1.63
2022-12-03T16:56:04.148Z,1.63
2022-12-03T16:58:30.952Z,3.00
2022-12-03T17:00:57.800Z,1.60
2022-12-03T17:03:28.986Z,1.30
2022-12-03T17:06:00.212Z,1.35
2022-12-03T17:08:27.125Z,1.30
2022-12-03T17:10:54.114Z,1.00
2022-12-03T17:13:23.211Z,0.85
2022-12-03T17:15:50.939Z,0.90
2022-12-03T17:18:17.872Z,1.40
2022-12-03T17:21:42.196Z,1.53
2022-12-03T17:24:09.259Z,1.48
2022-12-03T17:26:36.072Z,1.30
2022-12-03T17:29:02.889Z,1.97
2022-12-03T17:31:29.891Z,1.57
2022-12-03T17:33:57.551Z,1.33
2022-12-03T17:36:25.096Z,1.50
2022-12-03T17:38:52.271Z,1.10
2022-12-03T17:41:19.109Z,1.10
2022-12-03T17:43:45.952Z,2.40
2022-12-03T17:46:12.752Z,2.67
2022-12-03T17:48:40.726Z,4.70
2022-12-03T17:51:07.530Z,4.80
2022-12-03T17:53:34.420Z,2.63
2022-12-03T17:56:01.341Z,1.63
2022-12-03T17:58:28.651Z,4.87
2022-12-03T18:01:01.817Z,4.17
2022-12-03T18:03:29.578Z,3.10
2022-12-03T18:05:56.521Z,2.00
2022-12-03T18:08:23.469Z,1.10
2022-12-03T18:10:50.391Z,2.30
2022-12-03T18:13:17.148Z,3.17
2022-12-03T18:15:44.071Z,2.60
2022-12-03T18:18:11.115Z,3.33
2022-12-03T18:20:38.234Z,7.03
2022-12-03T18:23:05.523Z,9.70
2022-12-03T18:25:32.455Z,10.23
2022-12-03T18:28:17.935Z,7.37
2022-12-03T18:30:50.676Z,2.50
2022-12-03T18:33:19.169Z,1.97
2022-12-03T18:35:46.040Z,2.37
2022-12-03T18:38:16.137Z,2.40
2022-12-03T18:40:44.424Z,2.30
2022-12-03T18:43:30.466Z,2.60
2022-12-03T18:45:57.315Z,2.30
2022-12-03T18:48:25.050Z,2.53
2022-12-03T18:50:51.872Z,2.37
2022-12-03T18:53:19.440Z,2.40
2022-12-03T18:56:05.203Z,1.33
2022-12-03T18:58:31.969Z,1.40
2022-12-03T19:00:58.803Z,0.60
2022-12-03T19:03:25.690Z,0.93
2022-12-03T19:05:52.528Z,0.70
2022-12-03T19:08:19.474Z,1.53
2022-12-03T19:10:55.794Z,0.77
2022-12-03T19:13:24.167Z,0.52
2022-12-03T19:15:51.928Z,0.60
2022-12-03T19:18:18.767Z,1.00
2022-12-03T19:20:45.629Z,2.47
2022-12-03T19:23:12.609Z,1.23
2022-12-03T19:25:39.411Z,1.17
2022-12-03T19:28:06.593Z,4.37
2022-12-03T19:30:33.529Z,5.93
2022-12-03T19:33:00.392Z,2.90
2022-12-03T19:35:27.220Z,1.65
2022-12-03T19:37:55.763Z,2.10
2022-12-03T19:40:22.561Z,2.15
2022-12-03T19:42:49.402Z,1.80
2022-12-03T19:45:16.323Z,1.57
2022-12-03T19:47:43.138Z,1.57
2022-12-03T19:50:10.656Z,1.73
2022-12-03T19:52:37.599Z,2.37
2022-12-03T19:55:05.217Z,1.20
2022-12-03T19:57:32.042Z,1.50
2022-12-03T19:59:58.901Z,1.47
2022-12-03T20:02:25.875Z,1.80
2022-12-03T20:04:52.779Z,1.27
2022-12-03T20:07:19.588Z,1.30
2022-12-03T20:09:46.435Z,1.23
2022-12-03T20:12:13.237Z,1.10
2022-12-03T20:14:40.077Z,0.97
2022-12-03T20:17:06.967Z,0.50
2022-12-03T20:19:33.895Z,0.40
2022-12-03T20:22:02.776Z,0.43
2022-12-03T20:24:48.968Z,0.60
2022-12-03T20:27:21.157Z,0.43
2022-12-03T20:30:08.576Z,0.50
2022-12-03T20:32:39.395Z,0.60
2022-12-03T20:35:10.553Z,0.70
2022-12-03T20:37:55.914Z,1.00
2022-12-03T20:40:41.555Z,0.40
2022-12-03T20:43:08.458Z,1.23
2022-12-03T20:45:35.298Z,1.00
2022-12-03T20:48:02.217Z,0.70
2022-12-03T20:50:28.982Z,0.70
2022-12-03T20:53:16.609Z,1.37
2022-12-03T20:55:42.602Z,1.00
2022-12-03T20:58:09.420Z,0.90
2022-12-03T21:00:54.851Z,0.57
2022-12-03T21:03:21.956Z,0.50
2022-12-03T21:05:48.782Z,0.80
2022-12-03T21:08:15.761Z,0.70
2022-12-03T21:10:45.377Z,1.07
2022-12-03T21:13:17.642Z,0.70
2022-12-03T21:15:45.568Z,0.77
2022-12-03T21:18:14.529Z,0.53
2022-12-03T21:20:48.010Z,1.23
2022-12-03T21:23:15.212Z,0.80
2022-12-03T21:25:42.211Z,1.13
2022-12-03T21:28:09.551Z,1.93
2022-12-03T21:30:40.142Z,1.87
2022-12-03T21:33:07.141Z,0.70
2022-12-03T21:35:37.403Z,1.20
2022-12-03T21:38:04.264Z,0.90
2022-12-03T21:40:31.045Z,1.40
2022-12-03T21:42:58.051Z,1.20
2022-12-03T21:45:25.134Z,1.60
2022-12-03T21:47:52.132Z,2.17
2022-12-03T21:50:20.236Z,1.50
2022-12-03T21:52:47.061Z,1.20
2022-12-03T21:55:13.896Z,1.93
2022-12-03T21:57:40.725Z,1.30
2022-12-03T22:00:08.935Z,0.90
2022-12-03T22:02:40.230Z,1.33
2022-12-03T22:05:09.231Z,1.20
2022-12-03T22:07:37.625Z,0.90
2022-12-03T22:10:06.612Z,1.50
2022-12-03T22:12:33.499Z,1.20
2022-12-03T22:15:00.634Z,1.80
2022-12-03T22:17:27.596Z,1.80
2022-12-03T22:19:55.003Z,1.60
2022-12-03T22:22:21.940Z,1.50
2022-12-03T22:24:48.838Z,1.77
2022-12-03T22:27:53.334Z,1.20
2022-12-03T22:30:20.185Z,1.43
2022-12-03T22:32:47.003Z,1.20
2022-12-03T22:35:13.907Z,1.60
2022-12-03T22:37:40.699Z,1.70
2022-12-03T22:42:52.668Z,1.10
2022-12-03T22:45:19.421Z,2.47
2022-12-03T22:47:46.275Z,1.50
2022-12-03T22:50:13.075Z,1.70
2022-12-03T22:52:39.893Z,1.90
2022-12-03T22:55:06.934Z,1.80
2022-12-03T22:57:33.733Z,1.00
2022-12-03T23:00:00.511Z,1.40
2022-12-03T23:05:11.791Z,1.57
2022-12-03T23:08:16.634Z,1.13
2022-12-03T23:10:45.957Z,1.63
2022-12-03T23:13:13.414Z,1.40
2022-12-03T23:15:51.665Z,1.50
2022-12-03T23:18:19.662Z,1.40
2022-12-03T23:20:49.936Z,1.90
2022-12-03T23:23:17.565Z,0.80
2022-12-03T23:25:44.867Z,1.03
2022-12-03T23:28:12.601Z,1.00
2022-12-03T23:30:40.147Z,0.83
2022-12-03T23:33:07.077Z,0.63
2022-12-03T23:35:34.248Z,1.17
2022-12-03T23:38:01.185Z,0.87
2022-12-03T23:40:28.159Z,1.10
2022-12-03T23:42:55.159Z,0.90
2022-12-03T23:45:22.016Z,1.00
2022-12-03T23:47:52.363Z,1.17
2022-12-03T23:50:21.983Z,2.15
2022-12-03T23:52:48.987Z,0.73
2022-12-03T23:55:15.947Z,1.30
2022-12-03T23:57:43.985Z,1.23
